sensor_id;sensor_type;location;lat;lon;timestamp;P1;durP1;ratioP1;P2;durP2;ratioP2
53479;SDS011;56133;51.012;-1.648;2022-09-12T00:01:24;42.90;;;30.77;;
53479;SDS011;56133;51.012;-1.648;2022-09-12T00:03:53;40.30;;;30.38;;
53479;SDS011;56133;51.012;-1.648;2022-09-12T00:06:21;39.45;;;30.48;;
53479;SDS011;56133;51.012;-1.648;2022-09-12T00:08:50;44.15;;;31.50;;
53479;SDS011;56133;51.012;-1.648;2022-09-12T00:11:17;44.97;;;33.05;;
53479;SDS011;56133;51.012;-1.648;2022-09-12T00:13:43;47.65;;;32.90;;
53479;SDS011;56133;51.012;-1.648;2022-09-12T00:16:19;39.97;;;29.38;;
53479;SDS011;56133;51.012;-1.648;2022-09-12T00:18:46;39.60;;;29.17;;
53479;SDS011;56133;51.012;-1.648;2022-09-12T00:21:12;44.92;;;31.38;;
53479;SDS011;56133;51.012;-1.648;2022-09-12T00:23:38;42.30;;;31.77;;
53479;SDS011;56133;51.012;-1.648;2022-09-12T00:26:04;47.90;;;33.20;;
53479;SDS011;56133;51.012;-1.648;2022-09-12T00:28:31;44.35;;;32.42;;
53479;SDS011;56133;51.012;-1.648;2022-09-12T00:30:58;45.35;;;31.83;;
53479;SDS011;56133;51.012;-1.648;2022-09-12T00:33:23;42.00;;;30.50;;
53479;SDS011;56133;51.012;-1.648;2022-09-12T00:35:50;42.88;;;30.35;;
53479;SDS011;56133;51.012;-1.648;2022-09-12T00:38:19;43.90;;;32.45;;
53479;SDS011;56133;51.012;-1.648;2022-09-12T00:40:46;45.45;;;32.47;;
53479;SDS011;56133;51.012;-1.648;2022-09-12T00:43:13;46.17;;;32.72;;
53479;SDS011;56133;51.012;-1.648;2022-09-12T00:46:00;51.58;;;34.53;;
53479;SDS011;56133;51.012;-1.648;2022-09-12T00:48:41;48.22;;;34.10;;
53479;SDS011;56133;51.012;-1.648;2022-09-12T00:51:14;46.17;;;31.05;;
53479;SDS011;56133;51.012;-1.648;2022-09-12T00:53:41;43.67;;;30.58;;
53479;SDS011;56133;51.012;-1.648;2022-09-12T00:56:10;47.08;;;32.25;;
53479;SDS011;56133;51.012;-1.648;2022-09-12T00:58:43;42.55;;;31.25;;
53479;SDS011;56133;51.012;-1.648;2022-09-12T01:01:32;41.65;;;29.00;;
53479;SDS011;56133;51.012;-1.648;2022-09-12T01:03:58;38.45;;;28.52;;
53479;SDS011;56133;51.012;-1.648;2022-09-12T01:06:29;39.65;;;28.50;;
53479;SDS011;56133;51.012;-1.648;2022-09-12T01:08:59;45.30;;;31.38;;
53479;SDS011;56133;51.012;-1.648;2022-09-12T01:11:28;39.00;;;27.80;;
53479;SDS011;56133;51.012;-1.648;2022-09-12T01:13:55;52.72;;;35.58;;
53479;SDS011;56133;51.012;-1.648;2022-09-12T01:16:21;53.85;;;34.03;;
53479;SDS011;56133;51.012;-1.648;2022-09-12T01:29:44;50.17;;;32.30;;
53479;SDS011;56133;51.012;-1.648;2022-09-12T01:32:34;44.72;;;30.70;;
53479;SDS011;56133;51.012;-1.648;2022-09-12T01:37:53;43.50;;;29.77;;
53479;SDS011;56133;51.012;-1.648;2022-09-12T01:40:29;46.05;;;31.08;;
53479;SDS011;56133;51.012;-1.648;2022-09-12T01:45:54;47.67;;;33.13;;
53479;SDS011;56133;51.012;-1.648;2022-09-12T01:54:14;56.03;;;38.20;;
53479;SDS011;56133;51.012;-1.648;2022-09-12T01:56:44;47.00;;;33.92;;
53479;SDS011;56133;51.012;-1.648;2022-09-12T01:59:33;49.85;;;34.13;;
53479;SDS011;56133;51.012;-1.648;2022-09-12T02:02:02;49.00;;;33.05;;
53479;SDS011;56133;51.012;-1.648;2022-09-12T02:04:35;49.47;;;33.65;;
53479;SDS011;56133;51.012;-1.648;2022-09-12T02:07:09;50.92;;;34.50;;
53479;SDS011;56133;51.012;-1.648;2022-09-12T02:13:09;51.53;;;35.05;;
53479;SDS011;56133;51.012;-1.648;2022-09-12T02:15:44;48.60;;;34.33;;
53479;SDS011;56133;51.012;-1.648;2022-09-12T02:18:14;55.55;;;35.47;;
53479;SDS011;56133;51.012;-1.648;2022-09-12T02:20:42;51.72;;;34.30;;
53479;SDS011;56133;51.012;-1.648;2022-09-12T02:23:12;55.05;;;34.45;;
53479;SDS011;56133;51.012;-1.648;2022-09-12T02:25:43;57.15;;;35.42;;
53479;SDS011;56133;51.012;-1.648;2022-09-12T02:28:13;54.38;;;34.95;;
53479;SDS011;56133;51.012;-1.648;2022-09-12T02:30:49;52.65;;;33.78;;
53479;SDS011;56133;51.012;-1.648;2022-09-12T02:39:19;55.22;;;34.53;;
53479;SDS011;56133;51.012;-1.648;2022-09-12T02:41:51;47.40;;;31.20;;
53479;SDS011;56133;51.012;-1.648;2022-09-12T02:44:20;49.63;;;32.05;;
53479;SDS011;56133;51.012;-1.648;2022-09-12T02:46:49;52.95;;;33.28;;
53479;SDS011;56133;51.012;-1.648;2022-09-12T02:49:19;55.38;;;33.35;;
53479;SDS011;56133;51.012;-1.648;2022-09-12T02:51:45;65.57;;;41.47;;
53479;SDS011;56133;51.012;-1.648;2022-09-12T02:54:12;63.25;;;39.70;;
53479;SDS011;56133;51.012;-1.648;2022-09-12T02:56:40;66.72;;;40.22;;
53479;SDS011;56133;51.012;-1.648;2022-09-12T02:59:07;71.50;;;41.83;;
53479;SDS011;56133;51.012;-1.648;2022-09-12T03:04:20;77.13;;;44.90;;
53479;SDS011;56133;51.012;-1.648;2022-09-12T03:07:00;71.28;;;41.30;;
53479;SDS011;56133;51.012;-1.648;2022-09-12T03:09:56;60.05;;;37.97;;
53479;SDS011;56133;51.012;-1.648;2022-09-12T03:23:33;50.25;;;31.63;;
53479;SDS011;56133;51.012;-1.648;2022-09-12T03:31:27;67.80;;;38.55;;
53479;SDS011;56133;51.012;-1.648;2022-09-12T03:33:53;68.07;;;39.17;;
53479;SDS011;56133;51.012;-1.648;2022-09-12T03:36:20;54.92;;;34.28;;
53479;SDS011;56133;51.012;-1.648;2022-09-12T03:38:48;58.17;;;35.17;;
53479;SDS011;56133;51.012;-1.648;2022-09-12T03:41:13;52.13;;;31.08;;
53479;SDS011;56133;51.012;-1.648;2022-09-12T03:43:39;48.05;;;30.60;;
53479;SDS011;56133;51.012;-1.648;2022-09-12T03:46:04;48.83;;;30.92;;
53479;SDS011;56133;51.012;-1.648;2022-09-12T03:48:30;44.85;;;30.02;;
53479;SDS011;56133;51.012;-1.648;2022-09-12T03:50:59;48.78;;;30.23;;
53479;SDS011;56133;51.012;-1.648;2022-09-12T03:53:28;48.47;;;29.83;;
53479;SDS011;56133;51.012;-1.648;2022-09-12T03:55:54;45.58;;;29.95;;
53479;SDS011;56133;51.012;-1.648;2022-09-12T03:58:20;48.08;;;29.73;;
53479;SDS011;56133;51.012;-1.648;2022-09-12T04:00:46;44.53;;;29.42;;
53479;SDS011;56133;51.012;-1.648;2022-09-12T04:03:11;50.42;;;30.45;;
53479;SDS011;56133;51.012;-1.648;2022-09-12T04:05:36;63.00;;;37.20;;
53479;SDS011;56133;51.012;-1.648;2022-09-12T04:08:02;61.55;;;34.58;;
53479;SDS011;56133;51.012;-1.648;2022-09-12T04:10:27;77.22;;;40.33;;
53479;SDS011;56133;51.012;-1.648;2022-09-12T04:12:53;79.68;;;40.33;;
53479;SDS011;56133;51.012;-1.648;2022-09-12T04:15:18;79.75;;;40.88;;
53479;SDS011;56133;51.012;-1.648;2022-09-12T04:17:44;79.60;;;40.17;;
53479;SDS011;56133;51.012;-1.648;2022-09-12T04:20:09;55.97;;;33.22;;
53479;SDS011;56133;51.012;-1.648;2022-09-12T04:22:34;83.97;;;39.33;;
53479;SDS011;56133;51.012;-1.648;2022-09-12T04:25:00;61.53;;;34.28;;
53479;SDS011;56133;51.012;-1.648;2022-09-12T04:27:26;63.85;;;34.78;;
53479;SDS011;56133;51.012;-1.648;2022-09-12T04:29:51;62.42;;;33.35;;
53479;SDS011;56133;51.012;-1.648;2022-09-12T04:32:18;50.58;;;30.50;;
53479;SDS011;56133;51.012;-1.648;2022-09-12T04:34:44;52.88;;;30.10;;
53479;SDS011;56133;51.012;-1.648;2022-09-12T04:37:11;50.45;;;30.30;;
53479;SDS011;56133;51.012;-1.648;2022-09-12T04:39:36;56.53;;;31.90;;
53479;SDS011;56133;51.012;-1.648;2022-09-12T04:42:02;53.35;;;31.25;;
53479;SDS011;56133;51.012;-1.648;2022-09-12T04:44:27;72.47;;;35.28;;
53479;SDS011;56133;51.012;-1.648;2022-09-12T04:46:53;54.38;;;31.48;;
53479;SDS011;56133;51.012;-1.648;2022-09-12T04:49:18;50.00;;;29.27;;
53479;SDS011;56133;51.012;-1.648;2022-09-12T04:51:44;60.45;;;32.65;;
53479;SDS011;56133;51.012;-1.648;2022-09-12T04:54:11;75.60;;;33.88;;
53479;SDS011;56133;51.012;-1.648;2022-09-12T04:56:42;75.03;;;33.05;;
53479;SDS011;56133;51.012;-1.648;2022-09-12T04:59:10;69.72;;;32.35;;
53479;SDS011;56133;51.012;-1.648;2022-09-12T05:01:36;93.43;;;37.58;;
53479;SDS011;56133;51.012;-1.648;2022-09-12T05:04:02;90.35;;;36.00;;
53479;SDS011;56133;51.012;-1.648;2022-09-12T05:06:29;91.82;;;36.45;;
53479;SDS011;56133;51.012;-1.648;2022-09-12T05:08:58;98.40;;;39.63;;
53479;SDS011;56133;51.012;-1.648;2022-09-12T05:11:26;107.90;;;41.00;;
53479;SDS011;56133;51.012;-1.648;2022-09-12T05:13:53;90.05;;;37.95;;
53479;SDS011;56133;51.012;-1.648;2022-09-12T05:16:19;100.30;;;38.72;;
53479;SDS011;56133;51.012;-1.648;2022-09-12T05:18:46;85.15;;;35.72;;
53479;SDS011;56133;51.012;-1.648;2022-09-12T05:21:17;98.93;;;36.78;;
53479;SDS011;56133;51.012;-1.648;2022-09-12T05:23:44;164.52;;;41.90;;
53479;SDS011;56133;51.012;-1.648;2022-09-12T05:26:13;199.45;;;44.20;;
53479;SDS011;56133;51.012;-1.648;2022-09-12T05:28:40;109.13;;;38.20;;
53479;SDS011;56133;51.012;-1.648;2022-09-12T05:33:34;171.25;;;44.03;;
53479;SDS011;56133;51.012;-1.648;2022-09-12T05:36:01;126.65;;;41.33;;
53479;SDS011;56133;51.012;-1.648;2022-09-12T05:38:28;108.32;;;37.40;;
53479;SDS011;56133;51.012;-1.648;2022-09-12T05:41:03;176.40;;;35.78;;
53479;SDS011;56133;51.012;-1.648;2022-09-12T05:43:30;168.20;;;30.27;;
53479;SDS011;56133;51.012;-1.648;2022-09-12T05:46:01;65.18;;;27.25;;
53479;SDS011;56133;51.012;-1.648;2022-09-12T05:48:28;102.38;;;27.65;;
53479;SDS011;56133;51.012;-1.648;2022-09-12T05:51:00;87.97;;;27.35;;
53479;SDS011;56133;51.012;-1.648;2022-09-12T05:53:27;58.65;;;25.95;;
53479;SDS011;56133;51.012;-1.648;2022-09-12T05:56:04;55.88;;;26.77;;
53479;SDS011;56133;51.012;-1.648;2022-09-12T05:58:33;55.30;;;26.25;;
53479;SDS011;56133;51.012;-1.648;2022-09-12T06:01:03;49.78;;;24.65;;
53479;SDS011;56133;51.012;-1.648;2022-09-12T06:03:32;58.08;;;28.02;;
53479;SDS011;56133;51.012;-1.648;2022-09-12T06:06:04;64.70;;;30.45;;
53479;SDS011;56133;51.012;-1.648;2022-09-12T06:08:31;52.47;;;25.83;;
53479;SDS011;56133;51.012;-1.648;2022-09-12T06:10:59;61.70;;;27.67;;
53479;SDS011;56133;51.012;-1.648;2022-09-12T06:13:32;62.15;;;28.08;;
53479;SDS011;56133;51.012;-1.648;2022-09-12T06:16:04;71.18;;;30.60;;
53479;SDS011;56133;51.012;-1.648;2022-09-12T06:18:32;69.03;;;29.42;;
53479;SDS011;56133;51.012;-1.648;2022-09-12T06:21:11;59.47;;;28.08;;
53479;SDS011;56133;51.012;-1.648;2022-09-12T06:23:38;55.42;;;27.23;;
53479;SDS011;56133;51.012;-1.648;2022-09-12T06:26:04;57.67;;;27.25;;
53479;SDS011;56133;51.012;-1.648;2022-09-12T06:28:31;55.63;;;27.20;;
53479;SDS011;56133;51.012;-1.648;2022-09-12T06:31:02;50.67;;;25.35;;
53479;SDS011;56133;51.012;-1.648;2022-09-12T06:33:30;41.67;;;22.27;;
53479;SDS011;56133;51.012;-1.648;2022-09-12T06:36:04;45.55;;;23.48;;
53479;SDS011;56133;51.012;-1.648;2022-09-12T06:38:31;42.40;;;22.60;;
53479;SDS011;56133;51.012;-1.648;2022-09-12T06:40:57;44.83;;;22.98;;
53479;SDS011;56133;51.012;-1.648;2022-09-12T06:43:24;41.75;;;22.90;;
53479;SDS011;56133;51.012;-1.648;2022-09-12T06:45:50;46.88;;;24.27;;
53479;SDS011;56133;51.012;-1.648;2022-09-12T06:48:16;43.88;;;22.70;;
53479;SDS011;56133;51.012;-1.648;2022-09-12T06:50:41;49.17;;;25.63;;
53479;SDS011;56133;51.012;-1.648;2022-09-12T06:53:07;44.70;;;24.92;;
53479;SDS011;56133;51.012;-1.648;2022-09-12T06:55:32;47.17;;;24.75;;
53479;SDS011;56133;51.012;-1.648;2022-09-12T06:57:58;53.92;;;27.42;;
53479;SDS011;56133;51.012;-1.648;2022-09-12T07:00:24;39.60;;;24.55;;
53479;SDS011;56133;51.012;-1.648;2022-09-12T07:02:55;36.35;;;23.35;;
53479;SDS011;56133;51.012;-1.648;2022-09-12T07:05:21;40.60;;;23.30;;
53479;SDS011;56133;51.012;-1.648;2022-09-12T07:07:46;39.50;;;24.13;;
53479;SDS011;56133;51.012;-1.648;2022-09-12T07:10:12;37.95;;;22.60;;
53479;SDS011;56133;51.012;-1.648;2022-09-12T07:12:38;42.75;;;24.02;;
53479;SDS011;56133;51.012;-1.648;2022-09-12T07:15:03;41.20;;;22.35;;
53479;SDS011;56133;51.012;-1.648;2022-09-12T07:17:29;43.78;;;23.92;;
53479;SDS011;56133;51.012;-1.648;2022-09-12T07:19:54;45.65;;;25.25;;
53479;SDS011;56133;51.012;-1.648;2022-09-12T07:22:20;40.65;;;21.90;;
53479;SDS011;56133;51.012;-1.648;2022-09-12T07:24:45;33.90;;;23.13;;
53479;SDS011;56133;51.012;-1.648;2022-09-12T07:27:11;35.55;;;22.67;;
53479;SDS011;56133;51.012;-1.648;2022-09-12T07:29:37;32.50;;;21.90;;
53479;SDS011;56133;51.012;-1.648;2022-09-12T07:32:02;34.60;;;22.48;;
53479;SDS011;56133;51.012;-1.648;2022-09-12T07:34:29;31.60;;;21.55;;
53479;SDS011;56133;51.012;-1.648;2022-09-12T07:36:55;29.60;;;20.73;;
53479;SDS011;56133;51.012;-1.648;2022-09-12T07:39:21;30.70;;;20.67;;
53479;SDS011;56133;51.012;-1.648;2022-09-12T07:41:46;29.23;;;20.58;;
53479;SDS011;56133;51.012;-1.648;2022-09-12T07:44:12;29.55;;;21.10;;
53479;SDS011;56133;51.012;-1.648;2022-09-12T07:46:37;33.22;;;20.98;;
53479;SDS011;56133;51.012;-1.648;2022-09-12T07:49:04;31.30;;;20.20;;
53479;SDS011;56133;51.012;-1.648;2022-09-12T07:51:29;32.17;;;21.60;;
53479;SDS011;56133;51.012;-1.648;2022-09-12T07:53:55;32.08;;;21.75;;
53479;SDS011;56133;51.012;-1.648;2022-09-12T07:56:21;30.08;;;20.52;;
53479;SDS011;56133;51.012;-1.648;2022-09-12T07:58:48;34.53;;;19.65;;
53479;SDS011;56133;51.012;-1.648;2022-09-12T08:01:17;27.85;;;19.48;;
53479;SDS011;56133;51.012;-1.648;2022-09-12T08:03:45;23.13;;;17.20;;
53479;SDS011;56133;51.012;-1.648;2022-09-12T08:06:13;29.90;;;18.50;;
53479;SDS011;56133;51.012;-1.648;2022-09-12T08:08:40;25.15;;;17.67;;
53479;SDS011;56133;51.012;-1.648;2022-09-12T08:11:07;26.33;;;17.58;;
53479;SDS011;56133;51.012;-1.648;2022-09-12T08:13:35;25.50;;;17.45;;
53479;SDS011;56133;51.012;-1.648;2022-09-12T08:16:06;26.75;;;16.95;;
53479;SDS011;56133;51.012;-1.648;2022-09-12T08:18:33;25.90;;;17.55;;
53479;SDS011;56133;51.012;-1.648;2022-09-12T08:21:01;28.48;;;18.40;;
53479;SDS011;56133;51.012;-1.648;2022-09-12T08:23:29;23.98;;;18.38;;
53479;SDS011;56133;51.012;-1.648;2022-09-12T08:25:55;25.90;;;16.98;;
53479;SDS011;56133;51.012;-1.648;2022-09-12T08:28:25;25.42;;;16.45;;
53479;SDS011;56133;51.012;-1.648;2022-09-12T08:30:51;25.17;;;16.67;;
53479;SDS011;56133;51.012;-1.648;2022-09-12T08:33:17;22.73;;;15.90;;
53479;SDS011;56133;51.012;-1.648;2022-09-12T08:35:43;22.77;;;14.35;;
53479;SDS011;56133;51.012;-1.648;2022-09-12T08:38:09;23.42;;;14.25;;
53479;SDS011;56133;51.012;-1.648;2022-09-12T08:41:10;23.23;;;14.50;;
53479;SDS011;56133;51.012;-1.648;2022-09-12T08:43:37;20.27;;;12.95;;
53479;SDS011;56133;51.012;-1.648;2022-09-12T08:46:25;26.98;;;12.45;;
53479;SDS011;56133;51.012;-1.648;2022-09-12T08:48:59;17.38;;;10.70;;
53479;SDS011;56133;51.012;-1.648;2022-09-12T08:51:26;15.43;;;10.30;;
53479;SDS011;56133;51.012;-1.648;2022-09-12T08:53:53;16.17;;;10.00;;
53479;SDS011;56133;51.012;-1.648;2022-09-12T08:56:21;17.27;;;9.80;;
53479;SDS011;56133;51.012;-1.648;2022-09-12T08:58:47;17.35;;;9.15;;
53479;SDS011;56133;51.012;-1.648;2022-09-12T09:12:34;12.93;;;8.00;;
53479;SDS011;56133;51.012;-1.648;2022-09-12T09:17:51;10.82;;;7.75;;
53479;SDS011;56133;51.012;-1.648;2022-09-12T09:20:45;15.95;;;8.25;;
53479;SDS011;56133;51.012;-1.648;2022-09-12T09:26:25;11.40;;;7.57;;
53479;SDS011;56133;51.012;-1.648;2022-09-12T09:29:37;11.67;;;7.37;;
53479;SDS011;56133;51.012;-1.648;2022-09-12T09:31:46;10.13;;;6.75;;
53479;SDS011;56133;51.012;-1.648;2022-09-12T09:34:20;10.23;;;7.30;;
53479;SDS011;56133;51.012;-1.648;2022-09-12T09:41:52;11.25;;;6.90;;
53479;SDS011;56133;51.012;-1.648;2022-09-12T09:44:25;10.43;;;5.53;;
53479;SDS011;56133;51.012;-1.648;2022-09-12T09:46:53;8.77;;;5.82;;
53479;SDS011;56133;51.012;-1.648;2022-09-12T09:49:20;9.55;;;5.60;;
53479;SDS011;56133;51.012;-1.648;2022-09-12T09:51:46;9.07;;;5.55;;
53479;SDS011;56133;51.012;-1.648;2022-09-12T09:56:40;8.77;;;5.65;;
53479;SDS011;56133;51.012;-1.648;2022-09-12T10:01:35;8.27;;;5.30;;
53479;SDS011;56133;51.012;-1.648;2022-09-12T10:04:02;6.68;;;4.85;;
53479;SDS011;56133;51.012;-1.648;2022-09-12T10:06:29;7.97;;;4.97;;
53479;SDS011;56133;51.012;-1.648;2022-09-12T10:09:31;8.48;;;4.90;;
53479;SDS011;56133;51.012;-1.648;2022-09-12T10:11:55;7.80;;;4.30;;
53479;SDS011;56133;51.012;-1.648;2022-09-12T10:16:52;8.75;;;4.70;;
53479;SDS011;56133;51.012;-1.648;2022-09-12T10:19:22;8.18;;;4.68;;
53479;SDS011;56133;51.012;-1.648;2022-09-12T10:21:56;8.48;;;4.53;;
53479;SDS011;56133;51.012;-1.648;2022-09-12T10:24:33;7.10;;;4.30;;
53479;SDS011;56133;51.012;-1.648;2022-09-12T10:32:13;8.75;;;3.50;;
53479;SDS011;56133;51.012;-1.648;2022-09-12T10:34:47;5.95;;;3.08;;
53479;SDS011;56133;51.012;-1.648;2022-09-12T10:37:18;4.68;;;3.05;;
53479;SDS011;56133;51.012;-1.648;2022-09-12T10:39:51;7.55;;;3.05;;
53479;SDS011;56133;51.012;-1.648;2022-09-12T10:47:45;6.57;;;3.17;;
53479;SDS011;56133;51.012;-1.648;2022-09-12T10:50:23;6.32;;;3.28;;
53479;SDS011;56133;51.012;-1.648;2022-09-12T10:52:50;9.85;;;3.15;;
53479;SDS011;56133;51.012;-1.648;2022-09-12T10:55:17;9.90;;;3.63;;
53479;SDS011;56133;51.012;-1.648;2022-09-12T10:58:02;7.30;;;3.70;;
53479;SDS011;56133;51.012;-1.648;2022-09-12T11:00:39;6.32;;;2.90;;
53479;SDS011;56133;51.012;-1.648;2022-09-12T11:03:15;6.82;;;2.92;;
53479;SDS011;56133;51.012;-1.648;2022-09-12T11:05:57;5.63;;;2.15;;
53479;SDS011;56133;51.012;-1.648;2022-09-12T11:16:20;5.05;;;1.48;;
53479;SDS011;56133;51.012;-1.648;2022-09-12T11:30:14;3.00;;;1.40;;
53479;SDS011;56133;51.012;-1.648;2022-09-12T11:33:43;4.78;;;1.45;;
53479;SDS011;56133;51.012;-1.648;2022-09-12T11:36:06;5.13;;;1.40;;
53479;SDS011;56133;51.012;-1.648;2022-09-12T11:41:35;3.65;;;1.15;;
53479;SDS011;56133;51.012;-1.648;2022-09-12T11:47:05;1.98;;;1.17;;
53479;SDS011;56133;51.012;-1.648;2022-09-12T11:49:38;3.30;;;1.00;;
53479;SDS011;56133;51.012;-1.648;2022-09-12T11:52:23;2.53;;;1.00;;
53479;SDS011;56133;51.012;-1.648;2022-09-12T11:54:56;1.45;;;0.90;;
53479;SDS011;56133;51.012;-1.648;2022-09-12T11:57:32;4.30;;;1.00;;
53479;SDS011;56133;51.012;-1.648;2022-09-12T12:00:16;4.45;;;0.90;;
53479;SDS011;56133;51.012;-1.648;2022-09-12T12:02:47;2.72;;;0.93;;
53479;SDS011;56133;51.012;-1.648;2022-09-12T12:05:23;3.38;;;1.13;;
53479;SDS011;56133;51.012;-1.648;2022-09-12T12:07:54;5.13;;;0.90;;
53479;SDS011;56133;51.012;-1.648;2022-09-12T12:10:26;4.47;;;1.30;;
53479;SDS011;56133;51.012;-1.648;2022-09-12T12:12:57;2.50;;;0.90;;
53479;SDS011;56133;51.012;-1.648;2022-09-12T12:15:27;2.70;;;1.00;;
53479;SDS011;56133;51.012;-1.648;2022-09-12T12:20:29;13.77;;;1.60;;
53479;SDS011;56133;51.012;-1.648;2022-09-12T12:22:54;9.10;;;1.50;;
53479;SDS011;56133;51.012;-1.648;2022-09-12T12:25:22;3.58;;;1.05;;
53479;SDS011;56133;51.012;-1.648;2022-09-12T12:27:56;3.67;;;0.93;;
53479;SDS011;56133;51.012;-1.648;2022-09-12T12:33:01;8.48;;;1.45;;
53479;SDS011;56133;51.012;-1.648;2022-09-12T12:43:40;5.47;;;1.23;;
53479;SDS011;56133;51.012;-1.648;2022-09-12T12:46:13;1.95;;;0.85;;
53479;SDS011;56133;51.012;-1.648;2022-09-12T12:59:48;2.50;;;0.60;;
53479;SDS011;56133;51.012;-1.648;2022-09-12T13:02:37;2.28;;;0.55;;
53479;SDS011;56133;51.012;-1.648;2022-09-12T13:05:17;1.65;;;0.50;;
53479;SDS011;56133;51.012;-1.648;2022-09-12T13:07:45;2.85;;;0.60;;
53479;SDS011;56133;51.012;-1.648;2022-09-12T13:10:21;2.38;;;0.60;;
53479;SDS011;56133;51.012;-1.648;2022-09-12T13:12:49;1.90;;;0.60;;
53479;SDS011;56133;51.012;-1.648;2022-09-12T13:18:00;7.90;;;0.70;;
53479;SDS011;56133;51.012;-1.648;2022-09-12T13:20:29;5.10;;;0.60;;
53479;SDS011;56133;51.012;-1.648;2022-09-12T13:22:59;3.58;;;0.60;;
53479;SDS011;56133;51.012;-1.648;2022-09-12T13:30:36;8.90;;;0.77;;
53479;SDS011;56133;51.012;-1.648;2022-09-12T13:33:09;4.03;;;0.60;;
53479;SDS011;56133;51.012;-1.648;2022-09-12T13:38:40;1.92;;;0.60;;
53479;SDS011;56133;51.012;-1.648;2022-09-12T13:41:30;5.15;;;0.90;;
53479;SDS011;56133;51.012;-1.648;2022-09-12T13:44:36;3.45;;;0.60;;
53479;SDS011;56133;51.012;-1.648;2022-09-12T13:47:08;15.63;;;1.20;;
53479;SDS011;56133;51.012;-1.648;2022-09-12T13:49:39;8.18;;;0.95;;
53479;SDS011;56133;51.012;-1.648;2022-09-12T13:52:07;3.10;;;0.68;;
53479;SDS011;56133;51.012;-1.648;2022-09-12T13:54:39;5.18;;;0.95;;
53479;SDS011;56133;51.012;-1.648;2022-09-12T13:57:04;4.28;;;0.70;;
53479;SDS011;56133;51.012;-1.648;2022-09-12T13:59:39;2.95;;;0.63;;
53479;SDS011;56133;51.012;-1.648;2022-09-12T14:02:19;5.82;;;0.70;;
53479;SDS011;56133;51.012;-1.648;2022-09-12T14:04:47;4.18;;;0.70;;
53479;SDS011;56133;51.012;-1.648;2022-09-12T14:07:47;1.58;;;0.50;;
53479;SDS011;56133;51.012;-1.648;2022-09-12T14:10:32;2.15;;;0.70;;
53479;SDS011;56133;51.012;-1.648;2022-09-12T14:13:04;4.75;;;0.60;;
53479;SDS011;56133;51.012;-1.648;2022-09-12T14:15:36;2.13;;;0.75;;
53479;SDS011;56133;51.012;-1.648;2022-09-12T14:18:03;2.90;;;0.73;;
53479;SDS011;56133;51.012;-1.648;2022-09-12T14:20:30;2.30;;;0.68;;
53479;SDS011;56133;51.012;-1.648;2022-09-12T14:23:08;3.60;;;0.60;;
53479;SDS011;56133;51.012;-1.648;2022-09-12T14:26:03;5.00;;;0.68;;
53479;SDS011;56133;51.012;-1.648;2022-09-12T14:28:33;2.67;;;0.70;;
53479;SDS011;56133;51.012;-1.648;2022-09-12T14:33:31;2.72;;;0.63;;
53479;SDS011;56133;51.012;-1.648;2022-09-12T14:36:29;4.50;;;0.73;;
53479;SDS011;56133;51.012;-1.648;2022-09-12T14:39:02;2.35;;;0.70;;
53479;SDS011;56133;51.012;-1.648;2022-09-12T14:41:36;3.90;;;0.70;;
53479;SDS011;56133;51.012;-1.648;2022-09-12T14:44:05;5.53;;;0.63;;
53479;SDS011;56133;51.012;-1.648;2022-09-12T14:46:38;4.10;;;0.70;;
53479;SDS011;56133;51.012;-1.648;2022-09-12T14:52:02;3.75;;;0.68;;
53479;SDS011;56133;51.012;-1.648;2022-09-12T14:54:34;3.23;;;0.57;;
53479;SDS011;56133;51.012;-1.648;2022-09-12T15:02:41;16.52;;;1.42;;
53479;SDS011;56133;51.012;-1.648;2022-09-12T15:07:54;2.38;;;0.60;;
53479;SDS011;56133;51.012;-1.648;2022-09-12T15:12:49;4.88;;;0.63;;
53479;SDS011;56133;51.012;-1.648;2022-09-12T15:15:19;3.90;;;0.70;;
53479;SDS011;56133;51.012;-1.648;2022-09-12T15:17:45;1.40;;;0.50;;
53479;SDS011;56133;51.012;-1.648;2022-09-12T15:20:11;9.60;;;0.90;;
53479;SDS011;56133;51.012;-1.648;2022-09-12T15:22:38;1.52;;;0.63;;
53479;SDS011;56133;51.012;-1.648;2022-09-12T15:25:04;3.85;;;0.73;;
53479;SDS011;56133;51.012;-1.648;2022-09-12T15:27:30;1.23;;;0.50;;
53479;SDS011;56133;51.012;-1.648;2022-09-12T15:29:56;1.98;;;0.77;;
53479;SDS011;56133;51.012;-1.648;2022-09-12T15:32:23;2.92;;;0.77;;
53479;SDS011;56133;51.012;-1.648;2022-09-12T15:34:49;3.17;;;0.70;;
53479;SDS011;56133;51.012;-1.648;2022-09-12T15:37:15;5.38;;;0.75;;
53479;SDS011;56133;51.012;-1.648;2022-09-12T15:39:41;2.38;;;0.60;;
53479;SDS011;56133;51.012;-1.648;2022-09-12T15:42:08;3.08;;;0.60;;
53479;SDS011;56133;51.012;-1.648;2022-09-12T15:44:35;4.00;;;0.90;;
53479;SDS011;56133;51.012;-1.648;2022-09-12T15:47:00;10.55;;;1.23;;
53479;SDS011;56133;51.012;-1.648;2022-09-12T15:49:26;1.75;;;0.70;;
53479;SDS011;56133;51.012;-1.648;2022-09-12T15:51:51;3.58;;;1.15;;
53479;SDS011;56133;51.012;-1.648;2022-09-12T15:54:16;2.72;;;0.90;;
53479;SDS011;56133;51.012;-1.648;2022-09-12T15:56:43;2.60;;;0.82;;
53479;SDS011;56133;51.012;-1.648;2022-09-12T15:59:08;5.07;;;0.90;;
53479;SDS011;56133;51.012;-1.648;2022-09-12T16:01:34;3.25;;;0.70;;
53479;SDS011;56133;51.012;-1.648;2022-09-12T16:04:00;4.68;;;0.95;;
53479;SDS011;56133;51.012;-1.648;2022-09-12T16:06:27;3.97;;;0.70;;
53479;SDS011;56133;51.012;-1.648;2022-09-12T16:08:55;2.88;;;0.70;;
53479;SDS011;56133;51.012;-1.648;2022-09-12T16:11:24;7.43;;;0.77;;
53479;SDS011;56133;51.012;-1.648;2022-09-12T16:13:51;4.03;;;0.70;;
53479;SDS011;56133;51.012;-1.648;2022-09-12T16:16:16;5.88;;;1.45;;
53479;SDS011;56133;51.012;-1.648;2022-09-12T16:18:42;9.50;;;2.13;;
53479;SDS011;56133;51.012;-1.648;2022-09-12T16:21:07;9.18;;;2.65;;
53479;SDS011;56133;51.012;-1.648;2022-09-12T16:23:33;7.82;;;2.70;;
53479;SDS011;56133;51.012;-1.648;2022-09-12T16:25:59;5.10;;;2.20;;
53479;SDS011;56133;51.012;-1.648;2022-09-12T16:28:26;6.53;;;2.00;;
53479;SDS011;56133;51.012;-1.648;2022-09-12T16:30:56;4.82;;;1.95;;
53479;SDS011;56133;51.012;-1.648;2022-09-12T16:33:23;4.25;;;1.80;;
53479;SDS011;56133;51.012;-1.648;2022-09-12T16:35:50;5.90;;;1.70;;
53479;SDS011;56133;51.012;-1.648;2022-09-12T16:38:19;15.98;;;2.13;;
53479;SDS011;56133;51.012;-1.648;2022-09-12T16:40:45;4.28;;;2.08;;
53479;SDS011;56133;51.012;-1.648;2022-09-12T16:43:10;4.90;;;1.77;;
53479;SDS011;56133;51.012;-1.648;2022-09-12T16:45:36;4.03;;;1.88;;
53479;SDS011;56133;51.012;-1.648;2022-09-12T16:48:01;4.43;;;1.30;;
53479;SDS011;56133;51.012;-1.648;2022-09-12T16:50:27;4.88;;;1.40;;
53479;SDS011;56133;51.012;-1.648;2022-09-12T16:52:53;3.13;;;1.17;;
53479;SDS011;56133;51.012;-1.648;2022-09-12T16:55:18;3.55;;;1.45;;
53479;SDS011;56133;51.012;-1.648;2022-09-12T16:57:44;8.30;;;2.13;;
53479;SDS011;56133;51.012;-1.648;2022-09-12T17:00:11;4.22;;;1.90;;
53479;SDS011;56133;51.012;-1.648;2022-09-12T17:02:38;5.30;;;2.10;;
53479;SDS011;56133;51.012;-1.648;2022-09-12T17:05:03;6.75;;;2.25;;
53479;SDS011;56133;51.012;-1.648;2022-09-12T17:07:29;13.35;;;2.50;;
53479;SDS011;56133;51.012;-1.648;2022-09-12T17:09:54;6.57;;;1.88;;
53479;SDS011;56133;51.012;-1.648;2022-09-12T17:12:20;7.10;;;1.50;;
53479;SDS011;56133;51.012;-1.648;2022-09-12T17:14:47;3.67;;;1.60;;
53479;SDS011;56133;51.012;-1.648;2022-09-12T17:17:13;5.68;;;1.70;;
53479;SDS011;56133;51.012;-1.648;2022-09-12T17:19:38;4.60;;;1.65;;
53479;SDS011;56133;51.012;-1.648;2022-09-12T17:22:04;6.05;;;2.53;;
53479;SDS011;56133;51.012;-1.648;2022-09-12T17:24:29;6.63;;;4.18;;